METAR Reports From Nearby Airports

 

KTIW - Tacoma, Washington, USA
Distance from station: S 6mi, 10km
Updated: Sun, 25-Jun-2017 4:53pm PDT
Clear
Clear
 Wind from calm
Wind: Calm
Temperature: 91°F , 33°C
Dew Point: 46°F , 8°C
Humidity: 21%
Barometer: 29.83 inHg , 1010.2 hPa
Clouds: Clear
Visibility: 10 miles , 16 km
2017/06/25 23:53 KTIW 252353Z 00000KT 10SM CLR 33/08 A2983 RMK AO2 SLP096 T03330078 10344 20261 56013
KPWT - Bremerton Ntnl, Washington, USA
Distance from station: NW 13mi, 20km
Updated: Sun, 25-Jun-2017 4:56pm PDT
Clear
Clear
 Wind from NE
Wind: NE 9 mph , 15 km/h
Temperature: 91°F , 33°C
Dew Point: 54°F , 12°C
Humidity: 28%
Barometer: 29.83 inHg , 1010.2 hPa
Clouds: Clear
2017/06/25 23:56 KPWT 252356Z AUTO 05008KT CLR 33/12 A2983 RMK AO2 SLP110 T03330122 10367 20289 56014 PWINO $
KSEA - Seattle/Metro, Washington, USA
Distance from station: ENE 14mi, 23km
Updated: Sun, 25-Jun-2017 4:53pm PDT
Mostly cloudy
Mostly cloudy
 Wind from WNW
Wind: WNW 5 mph , 7 km/h
Temperature: 93°F , 34°C
Dew Point: 52°F , 11°C
Humidity: 24%
Barometer: 29.84 inHg , 1010.5 hPa
Clouds: Mostly cloudy
Visibility: 10 miles , 16 km
Cloud details: Mostly cloudy 22000 ft
2017/06/25 23:53 KSEA 252353Z 29004KT 10SM BKN220 34/11 A2984 RMK AO2 SLP105 T03440111 10356 20283 58012
 
KTCM - Tacoma/Mc Chord, Washington, USA
Distance from station: SSE 17mi, 28km
Updated: Sun, 25-Jun-2017 4:58pm PDT
Clear
Clear
 
Temperature: 97°F , 36°C
Dew Point: 46°F , 8°C
Humidity: 18%
Barometer: 29.83 inHg , 1010.2 hPa
Clouds: Clear
Visibility: M 10 miles , 16 km
2017/06/25 23:58 KTCM 252358Z AUTO M 10SM CLR 36/08 A2983 RMK AO2 SLP103 60000 T03610080 10363 20277 57011 $
KBFI - Seattle/Boeing, Washington, USA
Distance from station: NE 19mi, 30km
Updated: Sun, 25-Jun-2017 4:53pm PDT
Clear
Clear
 Wind from NW
Wind: NW 9 mph , 15 km/h
Temperature: 90°F , 32°C
Dew Point: 55°F , 13°C
Humidity: 31%
Barometer: 29.81 inHg , 1009.5 hPa
Clouds: Clear
Visibility: 10 miles , 16 km
2017/06/25 23:53 KBFI 252353Z 31008KT 10SM CLR 32/13 A2981 RMK AO2 SLP094 T03170133 10339 20267 58012
KGRF - Fort Lewis/Gray, Washington, USA
Distance from station: S 20mi, 32km
Updated: Sun, 25-Jun-2017 4:58pm PDT
Clear
Clear
 Wind from W
Wind: W 6 mph , 9 km/h
Temperature: 97°F , 36°C
Dew Point: 59°F , 15°C
Humidity: 28%
Barometer: 29.82 inHg , 1009.8 hPa
Clouds: Clear
Visibility: 10 miles , 16 km
2017/06/25 23:58 KGRF 252358Z AUTO 27005KT 10SM CLR 36/15 A2982 RMK AO2 SLP100 T03590145 10359 20274 57012 $
 
KRNT - Renton, Washington, USA
Distance from station: ENE 20mi, 32km
Updated: Sun, 25-Jun-2017 4:53pm PDT
Clear
Clear
 Wind from NNW
Wind: NNW 6 mph , 9 km/h
Temperature: 93°F , 34°C
Dew Point: 55°F , 13°C
Humidity: 28%
Barometer: 29.80 inHg , 1009.1 hPa
Clouds: Clear
Visibility: 10 miles , 16 km
2017/06/25 23:53 KRNT 252353Z 33005KT 10SM CLR 34/13 A2980 RMK AO2 SLP096 T03390133 10350 20267 56013
KPLU - Puyallup/Thun, Washington, USA
Distance from station: SE 23mi, 36km
Updated: Sun, 25-Jun-2017 4:55pm PDT
Clear
Clear
 Wind from calm
Wind: Calm
Temperature: 97°F , 36°C
Dew Point: 46°F , 8°C
Humidity: 18%
Barometer: 29.84 inHg , 1010.5 hPa
Clouds: Clear
Visibility: 10 miles , 16 km
2017/06/25 23:55 KPLU 252355Z AUTO 00000KT 10SM CLR 36/08 A2984 RMK AO2
KSHN - Shelton, Washington, USA
Distance from station: WSW 27mi, 43km
Updated: Sat, 24-Jun-2017 10:53am PDT
NOT Current
Clear
Clear
 Wind from varies
Wind: varies 3 mph , 6 km/h
Temperature: 79°F , 26°C
Dew Point: 52°F , 11°C
Humidity: 39%
Barometer: 30.10 inHg , 1019.3 hPa
Clouds: Clear
Visibility: 10 miles , 16 km
2017/06/24 17:53 KSHN 241753Z AUTO VRB03KT 10SM CLR 26/11 A3010 RMK AO2 SLP190 T02610111 10261 20072 58008
 
KOLM - Olympia, Washington, USA
Distance from station: SSW 30mi, 49km
Updated: Sun, 25-Jun-2017 4:54pm PDT
Clear
Clear
 Wind from NW
Wind: NW 8 mph , 13 km/h
Temperature: 95°F , 35°C
Dew Point: 59°F , 15°C
Humidity: 30%
Barometer: 29.82 inHg , 1009.8 hPa
Clouds: Clear
Visibility: 10 miles , 16 km
2017/06/25 23:54 KOLM 252354Z 32007KT 10SM CLR 35/15 A2982 RMK AO2 SLP096 T03500150 10367 20272 56015
KPAE - Everett, Washington, USA
Distance from station: NNE 41mi, 67km
Updated: Sun, 25-Jun-2017 4:53pm PDT
Clear
Clear
 Wind from NNW
Wind: NNW 9 mph , 15 km/h
Temperature: 82°F , 28°C
Heat Index: 81°F , 27°C
Dew Point: 55°F , 13°C
Humidity: 40%
Barometer: 29.86 inHg , 1011.2 hPa
Clouds: Clear
Visibility: 10 miles , 16 km
2017/06/25 23:53 KPAE 252353Z 33008KT 10SM CLR 28/13 A2986 RMK AO2 SLP109 T02830128 10306 20261 58011
KCLS - Chehalis Central, Washington, USA
Distance from station: SSW 50mi, 80km
Updated: Sun, 25-Jun-2017 5:15pm PDT
Clear
Clear
 Wind from NW
Wind: NW 8 mph , 13 km/h, Gust: 20 mph , 31 km/h
Temperature: 91°F , 33°C
Dew Point: 63°F , 17°C
Humidity: 38%
Barometer: 29.84 inHg , 1010.5 hPa
Clouds: Clear
Visibility: 10 miles , 16 km
2017/06/26 00:15 KCLS 260015Z AUTO 31007G17KT 290V350 10SM CLR 33/17 A2984 RMK AO2